sensor_id;sensor_type;location;lat;lon;timestamp;temperature;humidity
49148;DHT22;41980;45.550;12.070;2023-03-04T00:05:32;7.60;66.90
49148;DHT22;41980;45.550;12.070;2023-03-04T00:11:34;7.50;68.20
49148;DHT22;41980;45.550;12.070;2023-03-04T00:17:36;7.40;67.00
49148;DHT22;41980;45.550;12.070;2023-03-04T00:23:37;7.40;66.90
49148;DHT22;41980;45.550;12.070;2023-03-04T00:29:41;7.30;66.80
49148;DHT22;41980;45.550;12.070;2023-03-04T00:35:43;7.30;67.40
49148;DHT22;41980;45.550;12.070;2023-03-04T00:41:45;7.20;67.00
49148;DHT22;41980;45.550;12.070;2023-03-04T00:47:47;7.20;68.30
49148;DHT22;41980;45.550;12.070;2023-03-04T00:53:49;7.10;66.80
49148;DHT22;41980;45.550;12.070;2023-03-04T00:59:53;7.00;68.30
49148;DHT22;41980;45.550;12.070;2023-03-04T01:05:54;7.00;67.70
49148;DHT22;41980;45.550;12.070;2023-03-04T01:11:57;6.90;67.40
49148;DHT22;41980;45.550;12.070;2023-03-04T01:17:58;6.90;68.00
49148;DHT22;41980;45.550;12.070;2023-03-04T01:24:00;6.80;67.30
49148;DHT22;41980;45.550;12.070;2023-03-04T01:30:03;6.80;67.40
49148;DHT22;41980;45.550;12.070;2023-03-04T01:36:06;6.70;67.10
49148;DHT22;41980;45.550;12.070;2023-03-04T01:42:12;6.70;67.10
49148;DHT22;41980;45.550;12.070;2023-03-04T01:48:24;6.60;67.20
49148;DHT22;41980;45.550;12.070;2023-03-04T01:54:26;6.60;67.00
49148;DHT22;41980;45.550;12.070;2023-03-04T02:00:29;6.50;67.20
49148;DHT22;41980;45.550;12.070;2023-03-04T02:06:33;6.60;67.10
49148;DHT22;41980;45.550;12.070;2023-03-04T02:12:35;6.50;67.20
49148;DHT22;41980;45.550;12.070;2023-03-04T02:18:37;6.40;67.50
49148;DHT22;41980;45.550;12.070;2023-03-04T02:24:44;6.40;67.30
49148;DHT22;41980;45.550;12.070;2023-03-04T02:30:47;6.20;67.90
49148;DHT22;41980;45.550;12.070;2023-03-04T02:36:52;6.00;68.60
49148;DHT22;41980;45.550;12.070;2023-03-04T02:42:56;5.80;68.90
49148;DHT22;41980;45.550;12.070;2023-03-04T02:48:59;5.90;69.00
49148;DHT22;41980;45.550;12.070;2023-03-04T02:55:02;5.90;68.80
49148;DHT22;41980;45.550;12.070;2023-03-04T03:01:05;5.90;70.90
49148;DHT22;41980;45.550;12.070;2023-03-04T03:07:08;5.80;69.10
49148;DHT22;41980;45.550;12.070;2023-03-04T03:13:10;5.80;68.70
49148;DHT22;41980;45.550;12.070;2023-03-04T03:19:13;5.80;68.70
49148;DHT22;41980;45.550;12.070;2023-03-04T03:25:16;5.70;69.30
49148;DHT22;41980;45.550;12.070;2023-03-04T03:31:18;5.50;69.90
49148;DHT22;41980;45.550;12.070;2023-03-04T03:37:22;5.40;70.10
49148;DHT22;41980;45.550;12.070;2023-03-04T03:43:23;5.30;70.40
49148;DHT22;41980;45.550;12.070;2023-03-04T03:49:25;5.10;70.60
49148;DHT22;41980;45.550;12.070;2023-03-04T03:55:28;5.10;70.60
49148;DHT22;41980;45.550;12.070;2023-03-04T04:01:30;5.10;70.60
49148;DHT22;41980;45.550;12.070;2023-03-04T04:07:35;5.20;70.50
49148;DHT22;41980;45.550;12.070;2023-03-04T04:13:37;5.20;70.40
49148;DHT22;41980;45.550;12.070;2023-03-04T04:19:40;5.20;70.30
49148;DHT22;41980;45.550;12.070;2023-03-04T04:25:42;5.20;70.30
49148;DHT22;41980;45.550;12.070;2023-03-04T04:31:44;5.40;70.50
49148;DHT22;41980;45.550;12.070;2023-03-04T04:37:46;5.40;69.90
49148;DHT22;41980;45.550;12.070;2023-03-04T04:43:47;5.30;70.40
49148;DHT22;41980;45.550;12.070;2023-03-04T04:49:49;5.20;70.80
49148;DHT22;41980;45.550;12.070;2023-03-04T04:55:52;5.10;70.80
49148;DHT22;41980;45.550;12.070;2023-03-04T05:01:54;5.10;70.80
49148;DHT22;41980;45.550;12.070;2023-03-04T05:07:56;5.20;70.50
49148;DHT22;41980;45.550;12.070;2023-03-04T05:13:57;5.20;71.60
49148;DHT22;41980;45.550;12.070;2023-03-04T05:19:59;5.20;70.40
49148;DHT22;41980;45.550;12.070;2023-03-04T05:26:02;5.20;70.10
49148;DHT22;41980;45.550;12.070;2023-03-04T05:32:04;5.10;70.30
49148;DHT22;41980;45.550;12.070;2023-03-04T05:38:08;5.10;70.60
49148;DHT22;41980;45.550;12.070;2023-03-04T05:44:11;5.00;70.90
49148;DHT22;41980;45.550;12.070;2023-03-04T05:50:13;5.10;70.50
49148;DHT22;41980;45.550;12.070;2023-03-04T05:56:17;5.10;70.50
49148;DHT22;41980;45.550;12.070;2023-03-04T06:02:20;5.00;70.70
49148;DHT22;41980;45.550;12.070;2023-03-04T06:08:22;5.00;71.00
49148;DHT22;41980;45.550;12.070;2023-03-04T06:14:24;5.00;71.30
49148;DHT22;41980;45.550;12.070;2023-03-04T06:20:28;5.00;71.20
49148;DHT22;41980;45.550;12.070;2023-03-04T06:26:30;5.10;71.20
49148;DHT22;41980;45.550;12.070;2023-03-04T06:32:32;5.10;71.20
49148;DHT22;41980;45.550;12.070;2023-03-04T06:38:34;5.20;71.10
49148;DHT22;41980;45.550;12.070;2023-03-04T06:44:36;5.40;70.90
49148;DHT22;41980;45.550;12.070;2023-03-04T06:50:38;5.70;70.60
49148;DHT22;41980;45.550;12.070;2023-03-04T06:56:40;6.10;70.10
49148;DHT22;41980;45.550;12.070;2023-03-04T07:02:43;6.40;69.60
49148;DHT22;41980;45.550;12.070;2023-03-04T07:08:45;7.60;71.20
49148;DHT22;41980;45.550;12.070;2023-03-04T07:14:47;10.80;69.00
49148;DHT22;41980;45.550;12.070;2023-03-04T07:20:51;13.70;65.90
49148;DHT22;41980;45.550;12.070;2023-03-04T07:26:54;15.90;63.30
49148;DHT22;41980;45.550;12.070;2023-03-04T07:32:57;17.50;61.50
49148;DHT22;41980;45.550;12.070;2023-03-04T07:38:59;18.50;60.60
49148;DHT22;41980;45.550;12.070;2023-03-04T07:45:00;16.90;58.10
49148;DHT22;41980;45.550;12.070;2023-03-04T07:51:08;14.30;62.40
49148;DHT22;41980;45.550;12.070;2023-03-04T07:57:10;12.40;64.30
49148;DHT22;41980;45.550;12.070;2023-03-04T08:03:12;11.10;64.60
49148;DHT22;41980;45.550;12.070;2023-03-04T08:09:14;10.70;65.80
49148;DHT22;41980;45.550;12.070;2023-03-04T08:15:16;10.40;65.70
49148;DHT22;41980;45.550;12.070;2023-03-04T08:21:20;10.20;65.30
49148;DHT22;41980;45.550;12.070;2023-03-04T08:27:22;10.20;65.00
49148;DHT22;41980;45.550;12.070;2023-03-04T08:33:24;10.20;64.80
49148;DHT22;41980;45.550;12.070;2023-03-04T08:39:26;10.30;63.30
49148;DHT22;41980;45.550;12.070;2023-03-04T08:45:28;10.40;63.90
49148;DHT22;41980;45.550;12.070;2023-03-04T08:51:30;10.40;63.50
49148;DHT22;41980;45.550;12.070;2023-03-04T08:57:32;10.50;63.40
49148;DHT22;41980;45.550;12.070;2023-03-04T09:03:34;10.60;63.40
49148;DHT22;41980;45.550;12.070;2023-03-04T09:09:36;10.80;63.10
49148;DHT22;41980;45.550;12.070;2023-03-04T09:15:44;10.90;62.60
49148;DHT22;41980;45.550;12.070;2023-03-04T09:21:47;11.60;65.10
49148;DHT22;41980;45.550;12.070;2023-03-04T09:27:49;14.40;61.90
49148;DHT22;41980;45.550;12.070;2023-03-04T09:33:52;16.50;58.80
49148;DHT22;41980;45.550;12.070;2023-03-04T09:39:54;18.00;59.90
49148;DHT22;41980;45.550;12.070;2023-03-04T09:46:00;18.90;58.70
49148;DHT22;41980;45.550;12.070;2023-03-04T09:52:09;19.40;55.80
49148;DHT22;41980;45.550;12.070;2023-03-04T10:10:36;20.10;56.90
49148;DHT22;41980;45.550;12.070;2023-03-04T10:22:51;19.40;56.70
49148;DHT22;41980;45.550;12.070;2023-03-04T10:28:53;19.40;54.60
49148;DHT22;41980;45.550;12.070;2023-03-04T10:34:55;19.70;53.80
49148;DHT22;41980;45.550;12.070;2023-03-04T10:40:58;19.80;53.70
49148;DHT22;41980;45.550;12.070;2023-03-04T10:47:00;19.80;54.90
49148;DHT22;41980;45.550;12.070;2023-03-04T10:53:02;19.60;54.30
49148;DHT22;41980;45.550;12.070;2023-03-04T11:11:22;16.90;53.90
49148;DHT22;41980;45.550;12.070;2023-03-04T11:17:27;16.20;53.20
49148;DHT22;41980;45.550;12.070;2023-03-04T11:29:44;15.50;52.30
49148;DHT22;41980;45.550;12.070;2023-03-04T11:35:56;15.30;52.70
49148;DHT22;41980;45.550;12.070;2023-03-04T11:42:06;15.00;52.50
49148;DHT22;41980;45.550;12.070;2023-03-04T12:55:41;14.50;53.40
49148;DHT22;41980;45.550;12.070;2023-03-04T13:01:51;14.50;53.50
49148;DHT22;41980;45.550;12.070;2023-03-04T13:14:02;14.40;53.10
49148;DHT22;41980;45.550;12.070;2023-03-04T13:38:32;14.40;53.00
49148;DHT22;41980;45.550;12.070;2023-03-04T13:50:47;14.40;51.90
49148;DHT22;41980;45.550;12.070;2023-03-04T14:03:13;14.30;52.70
49148;DHT22;41980;45.550;12.070;2023-03-04T14:09:19;14.40;51.50
49148;DHT22;41980;45.550;12.070;2023-03-04T14:15:26;14.40;52.20
49148;DHT22;41980;45.550;12.070;2023-03-04T14:21:29;14.30;52.50
49148;DHT22;41980;45.550;12.070;2023-03-04T14:27:34;14.20;52.80
49148;DHT22;41980;45.550;12.070;2023-03-04T14:33:38;14.20;52.90
49148;DHT22;41980;45.550;12.070;2023-03-04T14:39:47;14.20;52.60
49148;DHT22;41980;45.550;12.070;2023-03-04T14:45:54;14.30;52.30
49148;DHT22;41980;45.550;12.070;2023-03-04T14:51:58;14.30;52.70
49148;DHT22;41980;45.550;12.070;2023-03-04T15:04:10;14.20;52.40
49148;DHT22;41980;45.550;12.070;2023-03-04T15:10:12;14.20;52.70
49148;DHT22;41980;45.550;12.070;2023-03-04T15:16:16;14.10;52.90
49148;DHT22;41980;45.550;12.070;2023-03-04T15:22:19;14.10;53.00
49148;DHT22;41980;45.550;12.070;2023-03-04T15:28:22;14.00;53.20
49148;DHT22;41980;45.550;12.070;2023-03-04T15:34:26;13.90;53.40
49148;DHT22;41980;45.550;12.070;2023-03-04T15:40:32;13.80;53.80
49148;DHT22;41980;45.550;12.070;2023-03-04T15:46:35;13.80;53.90
49148;DHT22;41980;45.550;12.070;2023-03-04T15:52:38;13.70;54.10
49148;DHT22;41980;45.550;12.070;2023-03-04T15:58:40;13.60;54.30
49148;DHT22;41980;45.550;12.070;2023-03-04T16:04:44;13.50;54.50
49148;DHT22;41980;45.550;12.070;2023-03-04T16:10:47;13.50;54.90
49148;DHT22;41980;45.550;12.070;2023-03-04T16:16:51;13.40;54.90
49148;DHT22;41980;45.550;12.070;2023-03-04T16:22:56;13.30;55.20
49148;DHT22;41980;45.550;12.070;2023-03-04T16:28:59;13.10;55.50
49148;DHT22;41980;45.550;12.070;2023-03-04T16:35:01;12.90;55.80
49148;DHT22;41980;45.550;12.070;2023-03-04T16:41:08;12.70;56.10
49148;DHT22;41980;45.550;12.070;2023-03-04T16:47:13;12.50;56.30
49148;DHT22;41980;45.550;12.070;2023-03-04T16:59:24;12.10;56.80
49148;DHT22;41980;45.550;12.070;2023-03-04T17:05:29;11.90;57.10
49148;DHT22;41980;45.550;12.070;2023-03-04T17:11:32;11.70;57.40
49148;DHT22;41980;45.550;12.070;2023-03-04T17:17:34;11.50;57.70
49148;DHT22;41980;45.550;12.070;2023-03-04T17:23:36;11.20;57.90
49148;DHT22;41980;45.550;12.070;2023-03-04T17:29:38;11.10;58.50
49148;DHT22;41980;45.550;12.070;2023-03-04T17:35:40;10.90;58.50
49148;DHT22;41980;45.550;12.070;2023-03-04T17:41:43;10.80;58.70
49148;DHT22;41980;45.550;12.070;2023-03-04T17:47:45;10.60;58.70
49148;DHT22;41980;45.550;12.070;2023-03-04T17:53:47;10.50;58.90
49148;DHT22;41980;45.550;12.070;2023-03-04T17:59:49;10.50;59.00
49148;DHT22;41980;45.550;12.070;2023-03-04T18:05:51;10.40;59.50
49148;DHT22;41980;45.550;12.070;2023-03-04T18:11:52;10.30;59.20
49148;DHT22;41980;45.550;12.070;2023-03-04T18:17:54;10.20;59.40
49148;DHT22;41980;45.550;12.070;2023-03-04T18:23:56;10.10;59.60
49148;DHT22;41980;45.550;12.070;2023-03-04T18:29:59;10.00;59.70
49148;DHT22;41980;45.550;12.070;2023-03-04T18:36:03;9.90;60.20
49148;DHT22;41980;45.550;12.070;2023-03-04T18:42:06;9.70;60.00
49148;DHT22;41980;45.550;12.070;2023-03-04T18:48:08;9.70;60.30
49148;DHT22;41980;45.550;12.070;2023-03-04T18:54:10;9.60;60.50
49148;DHT22;41980;45.550;12.070;2023-03-04T19:00:14;9.50;60.50
49148;DHT22;41980;45.550;12.070;2023-03-04T19:06:17;9.50;60.60
49148;DHT22;41980;45.550;12.070;2023-03-04T19:12:19;9.40;60.60
49148;DHT22;41980;45.550;12.070;2023-03-04T19:18:21;9.30;60.80
49148;DHT22;41980;45.550;12.070;2023-03-04T19:24:24;9.20;61.00
49148;DHT22;41980;45.550;12.070;2023-03-04T19:30:26;9.20;61.10
49148;DHT22;41980;45.550;12.070;2023-03-04T19:36:28;9.10;61.30
49148;DHT22;41980;45.550;12.070;2023-03-04T19:42:31;9.00;61.50
49148;DHT22;41980;45.550;12.070;2023-03-04T19:48:34;9.00;61.70
49148;DHT22;41980;45.550;12.070;2023-03-04T19:54:36;9.00;61.70
49148;DHT22;41980;45.550;12.070;2023-03-04T20:00:39;9.00;61.90
49148;DHT22;41980;45.550;12.070;2023-03-04T20:06:44;8.90;62.10
49148;DHT22;41980;45.550;12.070;2023-03-04T20:12:46;8.90;62.30
49148;DHT22;41980;45.550;12.070;2023-03-04T20:18:48;8.90;62.40
49148;DHT22;41980;45.550;12.070;2023-03-04T20:24:50;8.80;62.50
49148;DHT22;41980;45.550;12.070;2023-03-04T20:37:03;8.70;62.70
49148;DHT22;41980;45.550;12.070;2023-03-04T20:43:05;8.60;62.70
49148;DHT22;41980;45.550;12.070;2023-03-04T20:49:11;8.60;63.10
49148;DHT22;41980;45.550;12.070;2023-03-04T20:55:14;8.50;63.20
49148;DHT22;41980;45.550;12.070;2023-03-04T21:01:16;8.40;62.90
49148;DHT22;41980;45.550;12.070;2023-03-04T21:07:18;8.40;63.00
49148;DHT22;41980;45.550;12.070;2023-03-04T21:13:19;8.30;63.30
49148;DHT22;41980;45.550;12.070;2023-03-04T21:19:27;8.20;63.30
49148;DHT22;41980;45.550;12.070;2023-03-04T21:25:30;8.10;63.60
49148;DHT22;41980;45.550;12.070;2023-03-04T21:31:37;8.00;64.00
49148;DHT22;41980;45.550;12.070;2023-03-04T21:37:40;8.00;63.80
49148;DHT22;41980;45.550;12.070;2023-03-04T21:43:43;8.00;63.90
49148;DHT22;41980;45.550;12.070;2023-03-04T21:49:45;7.90;64.00
49148;DHT22;41980;45.550;12.070;2023-03-04T21:55:49;7.90;64.50
49148;DHT22;41980;45.550;12.070;2023-03-04T22:01:54;7.80;64.30
49148;DHT22;41980;45.550;12.070;2023-03-04T22:07:55;7.70;64.60
49148;DHT22;41980;45.550;12.070;2023-03-04T22:14:00;7.60;64.70
49148;DHT22;41980;45.550;12.070;2023-03-04T22:20:02;7.50;65.00
49148;DHT22;41980;45.550;12.070;2023-03-04T22:26:10;7.50;65.40
49148;DHT22;41980;45.550;12.070;2023-03-04T22:32:13;7.40;66.00
49148;DHT22;41980;45.550;12.070;2023-03-04T22:38:15;7.20;66.20
49148;DHT22;41980;45.550;12.070;2023-03-04T22:44:17;7.20;66.30
49148;DHT22;41980;45.550;12.070;2023-03-04T22:50:20;7.10;66.40
49148;DHT22;41980;45.550;12.070;2023-03-04T22:56:23;7.10;66.60
49148;DHT22;41980;45.550;12.070;2023-03-04T23:02:25;7.00;66.70
49148;DHT22;41980;45.550;12.070;2023-03-04T23:08:27;6.90;66.70
49148;DHT22;41980;45.550;12.070;2023-03-04T23:14:29;6.90;66.80
49148;DHT22;41980;45.550;12.070;2023-03-04T23:20:31;6.80;66.90
49148;DHT22;41980;45.550;12.070;2023-03-04T23:26:34;6.80;67.00
49148;DHT22;41980;45.550;12.070;2023-03-04T23:32:37;6.70;67.60
49148;DHT22;41980;45.550;12.070;2023-03-04T23:38:40;6.50;68.00
49148;DHT22;41980;45.550;12.070;2023-03-04T23:44:42;6.50;68.60
49148;DHT22;41980;45.550;12.070;2023-03-04T23:50:50;6.50;68.30
49148;DHT22;41980;45.550;12.070;2023-03-04T23:56:52;6.50;68.30
